sensor_id;sensor_type;location;lat;lon;timestamp;P1;durP1;ratioP1;P2;durP2;ratioP2
75456;SDS011;64036;48.266;14.192;2023-08-20T00:00:28;11.00;;;7.40;;
75456;SDS011;64036;48.266;14.192;2023-08-20T00:03:13;9.20;;;6.80;;
75456;SDS011;64036;48.266;14.192;2023-08-20T00:05:42;10.40;;;8.40;;
75456;SDS011;64036;48.266;14.192;2023-08-20T00:08:07;10.20;;;7.70;;
75456;SDS011;64036;48.266;14.192;2023-08-20T00:10:33;11.10;;;8.00;;
75456;SDS011;64036;48.266;14.192;2023-08-20T00:12:59;11.90;;;7.50;;
75456;SDS011;64036;48.266;14.192;2023-08-20T00:15:25;9.30;;;7.30;;
75456;SDS011;64036;48.266;14.192;2023-08-20T00:17:55;9.40;;;8.10;;
75456;SDS011;64036;48.266;14.192;2023-08-20T00:20:21;9.50;;;7.10;;
75456;SDS011;64036;48.266;14.192;2023-08-20T00:22:48;9.00;;;7.00;;
75456;SDS011;64036;48.266;14.192;2023-08-20T00:25:15;8.90;;;7.00;;
75456;SDS011;64036;48.266;14.192;2023-08-20T00:27:42;10.80;;;8.00;;
75456;SDS011;64036;48.266;14.192;2023-08-20T00:30:09;10.40;;;8.00;;
75456;SDS011;64036;48.266;14.192;2023-08-20T00:32:36;12.30;;;7.90;;
75456;SDS011;64036;48.266;14.192;2023-08-20T00:35:03;10.80;;;8.30;;
75456;SDS011;64036;48.266;14.192;2023-08-20T00:37:30;10.40;;;8.00;;
75456;SDS011;64036;48.266;14.192;2023-08-20T00:39:57;9.20;;;7.90;;
75456;SDS011;64036;48.266;14.192;2023-08-20T00:42:24;9.80;;;7.90;;
75456;SDS011;64036;48.266;14.192;2023-08-20T00:44:53;11.30;;;8.00;;
75456;SDS011;64036;48.266;14.192;2023-08-20T00:47:19;11.70;;;8.00;;
75456;SDS011;64036;48.266;14.192;2023-08-20T00:49:46;12.90;;;8.20;;
75456;SDS011;64036;48.266;14.192;2023-08-20T00:52:15;10.60;;;8.40;;
75456;SDS011;64036;48.266;14.192;2023-08-20T00:54:44;11.70;;;7.80;;
75456;SDS011;64036;48.266;14.192;2023-08-20T00:57:14;8.10;;;6.90;;
75456;SDS011;64036;48.266;14.192;2023-08-20T00:59:40;9.40;;;8.00;;
75456;SDS011;64036;48.266;14.192;2023-08-20T01:02:07;9.00;;;7.60;;
75456;SDS011;64036;48.266;14.192;2023-08-20T01:04:33;10.30;;;8.00;;
75456;SDS011;64036;48.266;14.192;2023-08-20T01:07:04;9.80;;;8.10;;
75456;SDS011;64036;48.266;14.192;2023-08-20T01:12:28;10.00;;;8.60;;
75456;SDS011;64036;48.266;14.192;2023-08-20T01:14:54;8.90;;;7.80;;
75456;SDS011;64036;48.266;14.192;2023-08-20T01:17:20;8.80;;;7.30;;
75456;SDS011;64036;48.266;14.192;2023-08-20T01:19:46;9.70;;;7.40;;
75456;SDS011;64036;48.266;14.192;2023-08-20T01:28:27;9.60;;;7.50;;
75456;SDS011;64036;48.266;14.192;2023-08-20T01:30:55;9.30;;;7.60;;
75456;SDS011;64036;48.266;14.192;2023-08-20T01:33:23;10.00;;;8.10;;
75456;SDS011;64036;48.266;14.192;2023-08-20T01:35:53;10.70;;;7.40;;
75456;SDS011;64036;48.266;14.192;2023-08-20T01:38:20;9.20;;;7.80;;
75456;SDS011;64036;48.266;14.192;2023-08-20T01:40:46;10.80;;;8.40;;
75456;SDS011;64036;48.266;14.192;2023-08-20T01:43:13;8.80;;;7.90;;
75456;SDS011;64036;48.266;14.192;2023-08-20T01:45:38;10.10;;;8.30;;
75456;SDS011;64036;48.266;14.192;2023-08-20T01:48:04;9.80;;;7.90;;
75456;SDS011;64036;48.266;14.192;2023-08-20T01:50:31;10.40;;;7.90;;
75456;SDS011;64036;48.266;14.192;2023-08-20T01:52:58;11.70;;;8.50;;
75456;SDS011;64036;48.266;14.192;2023-08-20T01:55:23;10.70;;;8.10;;
75456;SDS011;64036;48.266;14.192;2023-08-20T01:57:49;11.00;;;8.00;;
75456;SDS011;64036;48.266;14.192;2023-08-20T02:00:14;11.10;;;7.50;;
75456;SDS011;64036;48.266;14.192;2023-08-20T02:02:40;9.30;;;7.60;;
75456;SDS011;64036;48.266;14.192;2023-08-20T02:05:06;9.30;;;8.00;;
75456;SDS011;64036;48.266;14.192;2023-08-20T02:07:32;9.40;;;7.80;;
75456;SDS011;64036;48.266;14.192;2023-08-20T02:09:57;10.50;;;8.30;;
75456;SDS011;64036;48.266;14.192;2023-08-20T02:12:25;10.20;;;7.80;;
75456;SDS011;64036;48.266;14.192;2023-08-20T02:14:52;11.80;;;7.90;;
75456;SDS011;64036;48.266;14.192;2023-08-20T02:17:18;14.00;;;8.20;;
75456;SDS011;64036;48.266;14.192;2023-08-20T02:19:43;9.00;;;7.70;;
75456;SDS011;64036;48.266;14.192;2023-08-20T02:22:09;9.70;;;7.50;;
75456;SDS011;64036;48.266;14.192;2023-08-20T02:24:35;13.70;;;7.10;;
75456;SDS011;64036;48.266;14.192;2023-08-20T02:27:00;9.00;;;7.60;;
75456;SDS011;64036;48.266;14.192;2023-08-20T02:29:26;11.50;;;8.50;;
75456;SDS011;64036;48.266;14.192;2023-08-20T02:31:52;10.60;;;8.00;;
75456;SDS011;64036;48.266;14.192;2023-08-20T02:34:17;9.30;;;8.00;;
75456;SDS011;64036;48.266;14.192;2023-08-20T02:36:43;11.60;;;9.00;;
75456;SDS011;64036;48.266;14.192;2023-08-20T02:39:08;10.20;;;8.90;;
75456;SDS011;64036;48.266;14.192;2023-08-20T02:41:34;9.70;;;8.40;;
75456;SDS011;64036;48.266;14.192;2023-08-20T02:44:02;10.50;;;8.90;;
75456;SDS011;64036;48.266;14.192;2023-08-20T02:46:28;10.60;;;8.40;;
75456;SDS011;64036;48.266;14.192;2023-08-20T02:48:54;11.20;;;8.60;;
75456;SDS011;64036;48.266;14.192;2023-08-20T02:51:19;10.10;;;7.90;;
75456;SDS011;64036;48.266;14.192;2023-08-20T02:53:45;10.50;;;8.10;;
75456;SDS011;64036;48.266;14.192;2023-08-20T02:56:11;9.70;;;8.00;;
75456;SDS011;64036;48.266;14.192;2023-08-20T02:58:37;9.30;;;8.00;;
75456;SDS011;64036;48.266;14.192;2023-08-20T03:01:03;11.20;;;8.90;;
75456;SDS011;64036;48.266;14.192;2023-08-20T03:03:29;9.80;;;8.40;;
75456;SDS011;64036;48.266;14.192;2023-08-20T03:05:54;10.80;;;8.20;;
75456;SDS011;64036;48.266;14.192;2023-08-20T03:08:20;10.20;;;8.00;;
75456;SDS011;64036;48.266;14.192;2023-08-20T03:10:46;10.90;;;8.70;;
75456;SDS011;64036;48.266;14.192;2023-08-20T03:13:11;9.50;;;8.10;;
75456;SDS011;64036;48.266;14.192;2023-08-20T03:15:37;10.00;;;8.00;;
75456;SDS011;64036;48.266;14.192;2023-08-20T03:18:03;10.80;;;8.50;;
75456;SDS011;64036;48.266;14.192;2023-08-20T03:20:29;10.60;;;8.10;;
75456;SDS011;64036;48.266;14.192;2023-08-20T03:22:57;9.40;;;7.50;;
75456;SDS011;64036;48.266;14.192;2023-08-20T03:25:23;9.00;;;7.40;;
75456;SDS011;64036;48.266;14.192;2023-08-20T03:27:51;10.50;;;8.40;;
75456;SDS011;64036;48.266;14.192;2023-08-20T03:30:17;11.10;;;8.30;;
75456;SDS011;64036;48.266;14.192;2023-08-20T03:32:43;10.70;;;8.60;;
75456;SDS011;64036;48.266;14.192;2023-08-20T03:35:09;11.10;;;8.70;;
75456;SDS011;64036;48.266;14.192;2023-08-20T03:37:35;10.70;;;8.40;;
75456;SDS011;64036;48.266;14.192;2023-08-20T03:40:00;11.90;;;9.00;;
75456;SDS011;64036;48.266;14.192;2023-08-20T03:42:27;10.20;;;8.70;;
75456;SDS011;64036;48.266;14.192;2023-08-20T03:44:53;10.30;;;8.50;;
75456;SDS011;64036;48.266;14.192;2023-08-20T03:47:18;10.20;;;8.70;;
75456;SDS011;64036;48.266;14.192;2023-08-20T03:49:47;10.80;;;8.10;;
75456;SDS011;64036;48.266;14.192;2023-08-20T03:52:13;11.50;;;9.10;;
75456;SDS011;64036;48.266;14.192;2023-08-20T03:54:39;11.60;;;9.40;;
75456;SDS011;64036;48.266;14.192;2023-08-20T03:57:05;11.50;;;9.90;;
75456;SDS011;64036;48.266;14.192;2023-08-20T03:59:30;12.30;;;9.10;;
75456;SDS011;64036;48.266;14.192;2023-08-20T04:01:56;12.00;;;9.40;;
75456;SDS011;64036;48.266;14.192;2023-08-20T04:04:23;11.70;;;9.30;;
75456;SDS011;64036;48.266;14.192;2023-08-20T04:06:48;12.50;;;9.70;;
75456;SDS011;64036;48.266;14.192;2023-08-20T04:09:15;11.30;;;9.50;;
75456;SDS011;64036;48.266;14.192;2023-08-20T04:11:42;11.40;;;9.40;;
75456;SDS011;64036;48.266;14.192;2023-08-20T04:14:08;11.50;;;8.80;;
75456;SDS011;64036;48.266;14.192;2023-08-20T04:16:33;13.10;;;10.10;;
75456;SDS011;64036;48.266;14.192;2023-08-20T04:18:59;14.10;;;10.30;;
75456;SDS011;64036;48.266;14.192;2023-08-20T04:21:25;11.10;;;9.90;;
75456;SDS011;64036;48.266;14.192;2023-08-20T04:23:51;12.10;;;10.30;;
75456;SDS011;64036;48.266;14.192;2023-08-20T04:26:17;11.40;;;9.50;;
75456;SDS011;64036;48.266;14.192;2023-08-20T04:28:42;11.20;;;9.30;;
75456;SDS011;64036;48.266;14.192;2023-08-20T04:31:08;12.00;;;9.00;;
75456;SDS011;64036;48.266;14.192;2023-08-20T04:33:33;12.00;;;9.50;;
75456;SDS011;64036;48.266;14.192;2023-08-20T04:35:59;12.60;;;9.70;;
75456;SDS011;64036;48.266;14.192;2023-08-20T04:38:25;10.20;;;9.10;;
75456;SDS011;64036;48.266;14.192;2023-08-20T04:40:50;11.70;;;9.40;;
75456;SDS011;64036;48.266;14.192;2023-08-20T04:43:16;11.00;;;9.60;;
75456;SDS011;64036;48.266;14.192;2023-08-20T04:45:42;10.20;;;9.10;;
75456;SDS011;64036;48.266;14.192;2023-08-20T04:48:08;10.40;;;8.80;;
75456;SDS011;64036;48.266;14.192;2023-08-20T04:50:34;12.00;;;9.20;;
75456;SDS011;64036;48.266;14.192;2023-08-20T04:53:00;10.30;;;8.40;;
75456;SDS011;64036;48.266;14.192;2023-08-20T04:55:27;10.70;;;8.40;;
75456;SDS011;64036;48.266;14.192;2023-08-20T04:57:53;9.70;;;7.80;;
75456;SDS011;64036;48.266;14.192;2023-08-20T05:00:19;8.60;;;7.50;;
75456;SDS011;64036;48.266;14.192;2023-08-20T05:02:46;8.30;;;7.30;;
75456;SDS011;64036;48.266;14.192;2023-08-20T05:05:12;9.10;;;7.10;;
75456;SDS011;64036;48.266;14.192;2023-08-20T05:07:37;9.90;;;7.00;;
75456;SDS011;64036;48.266;14.192;2023-08-20T05:10:03;8.00;;;7.10;;
75456;SDS011;64036;48.266;14.192;2023-08-20T05:12:29;9.50;;;7.20;;
75456;SDS011;64036;48.266;14.192;2023-08-20T05:14:55;9.40;;;7.10;;
75456;SDS011;64036;48.266;14.192;2023-08-20T05:17:20;9.60;;;6.90;;
75456;SDS011;64036;48.266;14.192;2023-08-20T05:19:46;9.70;;;7.00;;
75456;SDS011;64036;48.266;14.192;2023-08-20T05:22:12;8.70;;;7.40;;
75456;SDS011;64036;48.266;14.192;2023-08-20T05:24:38;8.60;;;7.30;;
75456;SDS011;64036;48.266;14.192;2023-08-20T05:29:31;7.70;;;6.60;;
75456;SDS011;64036;48.266;14.192;2023-08-20T05:31:57;8.00;;;6.90;;
75456;SDS011;64036;48.266;14.192;2023-08-20T05:34:22;8.50;;;6.80;;
75456;SDS011;64036;48.266;14.192;2023-08-20T05:36:48;8.80;;;6.40;;
75456;SDS011;64036;48.266;14.192;2023-08-20T05:39:13;8.20;;;6.20;;
75456;SDS011;64036;48.266;14.192;2023-08-20T05:41:39;7.50;;;6.20;;
75456;SDS011;64036;48.266;14.192;2023-08-20T05:44:05;7.40;;;5.70;;
75456;SDS011;64036;48.266;14.192;2023-08-20T05:46:31;6.70;;;5.20;;
75456;SDS011;64036;48.266;14.192;2023-08-20T05:48:56;6.00;;;5.30;;
75456;SDS011;64036;48.266;14.192;2023-08-20T05:51:22;6.10;;;5.50;;
75456;SDS011;64036;48.266;14.192;2023-08-20T05:53:47;7.80;;;5.40;;
75456;SDS011;64036;48.266;14.192;2023-08-20T05:56:13;6.60;;;5.20;;
75456;SDS011;64036;48.266;14.192;2023-08-20T05:58:39;6.80;;;5.10;;
75456;SDS011;64036;48.266;14.192;2023-08-20T06:01:04;6.40;;;5.00;;
75456;SDS011;64036;48.266;14.192;2023-08-20T06:03:30;6.50;;;4.90;;
75456;SDS011;64036;48.266;14.192;2023-08-20T06:05:57;5.60;;;4.50;;
75456;SDS011;64036;48.266;14.192;2023-08-20T06:08:23;6.70;;;5.00;;
75456;SDS011;64036;48.266;14.192;2023-08-20T06:10:50;6.30;;;4.70;;
75456;SDS011;64036;48.266;14.192;2023-08-20T06:13:16;5.80;;;4.70;;
75456;SDS011;64036;48.266;14.192;2023-08-20T06:15:41;7.30;;;4.90;;
75456;SDS011;64036;48.266;14.192;2023-08-20T06:18:07;5.80;;;4.40;;
75456;SDS011;64036;48.266;14.192;2023-08-20T06:20:33;5.80;;;4.70;;
75456;SDS011;64036;48.266;14.192;2023-08-20T06:22:58;5.80;;;4.40;;
75456;SDS011;64036;48.266;14.192;2023-08-20T06:25:24;5.60;;;4.30;;
75456;SDS011;64036;48.266;14.192;2023-08-20T06:27:49;4.60;;;4.10;;
75456;SDS011;64036;48.266;14.192;2023-08-20T06:30:15;6.10;;;4.50;;
75456;SDS011;64036;48.266;14.192;2023-08-20T06:32:42;5.60;;;4.00;;
75456;SDS011;64036;48.266;14.192;2023-08-20T06:35:10;6.20;;;4.70;;
75456;SDS011;64036;48.266;14.192;2023-08-20T06:37:38;5.90;;;4.40;;
75456;SDS011;64036;48.266;14.192;2023-08-20T06:40:06;4.60;;;3.70;;
75456;SDS011;64036;48.266;14.192;2023-08-20T06:42:32;5.00;;;4.00;;
75456;SDS011;64036;48.266;14.192;2023-08-20T06:44:58;5.00;;;3.90;;
75456;SDS011;64036;48.266;14.192;2023-08-20T06:47:23;5.30;;;3.40;;
75456;SDS011;64036;48.266;14.192;2023-08-20T06:49:50;4.60;;;3.70;;
75456;SDS011;64036;48.266;14.192;2023-08-20T06:52:16;5.40;;;3.40;;
75456;SDS011;64036;48.266;14.192;2023-08-20T06:54:42;6.80;;;3.40;;
75456;SDS011;64036;48.266;14.192;2023-08-20T06:57:07;5.20;;;3.10;;
75456;SDS011;64036;48.266;14.192;2023-08-20T06:59:33;5.20;;;3.60;;
75456;SDS011;64036;48.266;14.192;2023-08-20T07:01:58;4.50;;;3.00;;
75456;SDS011;64036;48.266;14.192;2023-08-20T07:04:24;5.20;;;3.40;;
75456;SDS011;64036;48.266;14.192;2023-08-20T07:06:50;5.30;;;3.60;;
75456;SDS011;64036;48.266;14.192;2023-08-20T07:09:17;5.10;;;3.40;;
75456;SDS011;64036;48.266;14.192;2023-08-20T07:11:43;6.50;;;3.10;;
75456;SDS011;64036;48.266;14.192;2023-08-20T07:14:08;4.30;;;3.30;;
75456;SDS011;64036;48.266;14.192;2023-08-20T07:16:34;4.50;;;3.30;;
75456;SDS011;64036;48.266;14.192;2023-08-20T07:19:00;4.90;;;3.10;;
75456;SDS011;64036;48.266;14.192;2023-08-20T07:21:25;4.60;;;2.90;;
75456;SDS011;64036;48.266;14.192;2023-08-20T07:23:51;6.20;;;3.10;;
75456;SDS011;64036;48.266;14.192;2023-08-20T07:26:16;4.40;;;2.80;;
75456;SDS011;64036;48.266;14.192;2023-08-20T07:28:42;4.40;;;2.80;;
75456;SDS011;64036;48.266;14.192;2023-08-20T07:31:24;4.40;;;2.80;;
75456;SDS011;64036;48.266;14.192;2023-08-20T07:33:54;5.10;;;3.00;;
75456;SDS011;64036;48.266;14.192;2023-08-20T07:36:22;3.60;;;3.00;;
75456;SDS011;64036;48.266;14.192;2023-08-20T07:38:49;3.60;;;2.40;;
75456;SDS011;64036;48.266;14.192;2023-08-20T07:41:15;4.40;;;2.70;;
75456;SDS011;64036;48.266;14.192;2023-08-20T07:43:41;4.00;;;2.50;;
75456;SDS011;64036;48.266;14.192;2023-08-20T07:46:08;3.50;;;2.90;;
75456;SDS011;64036;48.266;14.192;2023-08-20T07:48:34;4.00;;;2.80;;
75456;SDS011;64036;48.266;14.192;2023-08-20T07:51:02;3.80;;;2.60;;
75456;SDS011;64036;48.266;14.192;2023-08-20T07:53:29;4.40;;;2.90;;
75456;SDS011;64036;48.266;14.192;2023-08-20T07:55:55;6.10;;;3.10;;
75456;SDS011;64036;48.266;14.192;2023-08-20T07:58:21;3.70;;;2.70;;
75456;SDS011;64036;48.266;14.192;2023-08-20T08:00:47;4.00;;;3.10;;
75456;SDS011;64036;48.266;14.192;2023-08-20T08:03:12;4.50;;;3.10;;
75456;SDS011;64036;48.266;14.192;2023-08-20T08:05:41;4.50;;;3.00;;
75456;SDS011;64036;48.266;14.192;2023-08-20T08:08:06;4.90;;;3.30;;
75456;SDS011;64036;48.266;14.192;2023-08-20T08:10:32;4.20;;;3.20;;
75456;SDS011;64036;48.266;14.192;2023-08-20T08:12:57;4.40;;;3.10;;
75456;SDS011;64036;48.266;14.192;2023-08-20T08:15:23;6.70;;;3.20;;
75456;SDS011;64036;48.266;14.192;2023-08-20T08:17:49;4.80;;;3.20;;
75456;SDS011;64036;48.266;14.192;2023-08-20T08:20:14;7.00;;;3.00;;
75456;SDS011;64036;48.266;14.192;2023-08-20T08:22:40;4.50;;;3.30;;
75456;SDS011;64036;48.266;14.192;2023-08-20T08:25:05;4.30;;;3.20;;
75456;SDS011;64036;48.266;14.192;2023-08-20T08:27:31;4.00;;;3.20;;
75456;SDS011;64036;48.266;14.192;2023-08-20T08:29:57;5.80;;;3.50;;
75456;SDS011;64036;48.266;14.192;2023-08-20T08:32:23;4.40;;;3.00;;
75456;SDS011;64036;48.266;14.192;2023-08-20T08:34:49;5.20;;;3.70;;
75456;SDS011;64036;48.266;14.192;2023-08-20T08:37:14;4.90;;;3.50;;
75456;SDS011;64036;48.266;14.192;2023-08-20T08:39:41;7.10;;;3.80;;
75456;SDS011;64036;48.266;14.192;2023-08-20T08:42:07;4.60;;;3.40;;
75456;SDS011;64036;48.266;14.192;2023-08-20T08:44:36;6.40;;;3.20;;
75456;SDS011;64036;48.266;14.192;2023-08-20T08:47:03;4.50;;;3.30;;
75456;SDS011;64036;48.266;14.192;2023-08-20T08:49:33;5.90;;;3.40;;
75456;SDS011;64036;48.266;14.192;2023-08-20T08:52:00;5.30;;;3.10;;
75456;SDS011;64036;48.266;14.192;2023-08-20T08:54:27;5.00;;;3.50;;
75456;SDS011;64036;48.266;14.192;2023-08-20T08:56:53;4.60;;;3.40;;
75456;SDS011;64036;48.266;14.192;2023-08-20T08:59:19;5.50;;;3.40;;
75456;SDS011;64036;48.266;14.192;2023-08-20T09:01:45;6.10;;;3.30;;
75456;SDS011;64036;48.266;14.192;2023-08-20T09:04:10;5.00;;;3.70;;
75456;SDS011;64036;48.266;14.192;2023-08-20T09:06:50;5.30;;;3.60;;
75456;SDS011;64036;48.266;14.192;2023-08-20T09:09:18;4.30;;;3.50;;
75456;SDS011;64036;48.266;14.192;2023-08-20T09:11:45;5.90;;;3.60;;
75456;SDS011;64036;48.266;14.192;2023-08-20T09:14:29;5.00;;;3.60;;
75456;SDS011;64036;48.266;14.192;2023-08-20T09:19:35;6.90;;;3.40;;
75456;SDS011;64036;48.266;14.192;2023-08-20T09:22:04;4.50;;;3.10;;
75456;SDS011;64036;48.266;14.192;2023-08-20T09:24:46;5.00;;;3.30;;
75456;SDS011;64036;48.266;14.192;2023-08-20T09:27:16;5.70;;;3.70;;
75456;SDS011;64036;48.266;14.192;2023-08-20T09:29:50;7.10;;;3.90;;
75456;SDS011;64036;48.266;14.192;2023-08-20T09:32:22;6.20;;;3.90;;
75456;SDS011;64036;48.266;14.192;2023-08-20T09:34:50;5.30;;;3.40;;
75456;SDS011;64036;48.266;14.192;2023-08-20T09:37:19;6.40;;;4.10;;
75456;SDS011;64036;48.266;14.192;2023-08-20T09:39:46;5.50;;;4.00;;
75456;SDS011;64036;48.266;14.192;2023-08-20T09:42:13;5.00;;;4.00;;
75456;SDS011;64036;48.266;14.192;2023-08-20T09:44:44;6.00;;;4.00;;
75456;SDS011;64036;48.266;14.192;2023-08-20T09:47:12;7.30;;;3.90;;
75456;SDS011;64036;48.266;14.192;2023-08-20T09:49:40;7.00;;;4.20;;
75456;SDS011;64036;48.266;14.192;2023-08-20T09:52:09;6.40;;;4.20;;
75456;SDS011;64036;48.266;14.192;2023-08-20T09:54:59;7.10;;;4.40;;
75456;SDS011;64036;48.266;14.192;2023-08-20T09:57:36;5.90;;;4.30;;
75456;SDS011;64036;48.266;14.192;2023-08-20T10:00:04;5.20;;;4.20;;
75456;SDS011;64036;48.266;14.192;2023-08-20T10:02:38;6.10;;;4.50;;
75456;SDS011;64036;48.266;14.192;2023-08-20T10:05:05;6.40;;;4.40;;
75456;SDS011;64036;48.266;14.192;2023-08-20T10:07:33;6.80;;;4.70;;
75456;SDS011;64036;48.266;14.192;2023-08-20T10:10:08;7.70;;;5.10;;
75456;SDS011;64036;48.266;14.192;2023-08-20T10:12:37;6.60;;;5.10;;
75456;SDS011;64036;48.266;14.192;2023-08-20T10:15:13;7.60;;;4.60;;
75456;SDS011;64036;48.266;14.192;2023-08-20T10:17:41;6.70;;;4.60;;
75456;SDS011;64036;48.266;14.192;2023-08-20T10:20:08;7.80;;;5.10;;
75456;SDS011;64036;48.266;14.192;2023-08-20T10:22:39;6.80;;;4.80;;
75456;SDS011;64036;48.266;14.192;2023-08-20T10:25:10;8.20;;;5.10;;
75456;SDS011;64036;48.266;14.192;2023-08-20T10:27:39;6.00;;;4.70;;
75456;SDS011;64036;48.266;14.192;2023-08-20T10:30:17;6.20;;;4.90;;
75456;SDS011;64036;48.266;14.192;2023-08-20T10:32:50;6.20;;;4.70;;
75456;SDS011;64036;48.266;14.192;2023-08-20T10:35:28;6.60;;;5.10;;
75456;SDS011;64036;48.266;14.192;2023-08-20T10:38:15;8.20;;;5.50;;
75456;SDS011;64036;48.266;14.192;2023-08-20T10:40:55;6.20;;;5.20;;
75456;SDS011;64036;48.266;14.192;2023-08-20T10:46:17;8.90;;;5.40;;
75456;SDS011;64036;48.266;14.192;2023-08-20T10:48:48;6.10;;;5.10;;
75456;SDS011;64036;48.266;14.192;2023-08-20T10:51:28;7.40;;;5.30;;
75456;SDS011;64036;48.266;14.192;2023-08-20T10:59:26;6.60;;;5.30;;
75456;SDS011;64036;48.266;14.192;2023-08-20T11:01:54;7.50;;;4.80;;
75456;SDS011;64036;48.266;14.192;2023-08-20T11:04:23;7.00;;;5.30;;
75456;SDS011;64036;48.266;14.192;2023-08-20T11:06:56;6.10;;;4.90;;
75456;SDS011;64036;48.266;14.192;2023-08-20T11:11:50;6.50;;;5.00;;
75456;SDS011;64036;48.266;14.192;2023-08-20T11:14:18;7.30;;;4.90;;
75456;SDS011;64036;48.266;14.192;2023-08-20T11:16:45;6.50;;;4.80;;
75456;SDS011;64036;48.266;14.192;2023-08-20T11:19:12;6.70;;;5.10;;
75456;SDS011;64036;48.266;14.192;2023-08-20T11:21:40;7.30;;;4.30;;
75456;SDS011;64036;48.266;14.192;2023-08-20T11:24:07;5.80;;;4.50;;
75456;SDS011;64036;48.266;14.192;2023-08-20T11:26:34;6.70;;;4.60;;
75456;SDS011;64036;48.266;14.192;2023-08-20T11:29:05;6.90;;;4.40;;
75456;SDS011;64036;48.266;14.192;2023-08-20T11:31:31;5.30;;;4.10;;
75456;SDS011;64036;48.266;14.192;2023-08-20T11:33:57;5.60;;;4.30;;
75456;SDS011;64036;48.266;14.192;2023-08-20T11:36:23;5.60;;;4.10;;
75456;SDS011;64036;48.266;14.192;2023-08-20T11:38:53;6.30;;;4.30;;
75456;SDS011;64036;48.266;14.192;2023-08-20T11:41:19;6.50;;;4.70;;
75456;SDS011;64036;48.266;14.192;2023-08-20T11:43:49;6.00;;;4.70;;
75456;SDS011;64036;48.266;14.192;2023-08-20T11:46:19;7.10;;;4.70;;
75456;SDS011;64036;48.266;14.192;2023-08-20T11:49:07;6.80;;;4.50;;
75456;SDS011;64036;48.266;14.192;2023-08-20T11:54:14;6.80;;;4.30;;
75456;SDS011;64036;48.266;14.192;2023-08-20T11:56:48;6.00;;;4.20;;
75456;SDS011;64036;48.266;14.192;2023-08-20T11:59:18;5.40;;;4.00;;
75456;SDS011;64036;48.266;14.192;2023-08-20T12:04:24;5.70;;;4.20;;
75456;SDS011;64036;48.266;14.192;2023-08-20T12:07:09;5.80;;;4.10;;
75456;SDS011;64036;48.266;14.192;2023-08-20T12:09:38;5.50;;;3.80;;
75456;SDS011;64036;48.266;14.192;2023-08-20T12:12:08;4.80;;;3.50;;
75456;SDS011;64036;48.266;14.192;2023-08-20T12:14:35;3.80;;;3.20;;
75456;SDS011;64036;48.266;14.192;2023-08-20T12:17:01;6.40;;;4.00;;
75456;SDS011;64036;48.266;14.192;2023-08-20T12:19:28;6.30;;;3.50;;
75456;SDS011;64036;48.266;14.192;2023-08-20T12:21:54;4.80;;;3.50;;
75456;SDS011;64036;48.266;14.192;2023-08-20T12:24:20;4.80;;;3.50;;
75456;SDS011;64036;48.266;14.192;2023-08-20T12:26:46;6.00;;;3.90;;
75456;SDS011;64036;48.266;14.192;2023-08-20T12:29:11;5.60;;;3.60;;
75456;SDS011;64036;48.266;14.192;2023-08-20T12:31:37;4.40;;;3.40;;
75456;SDS011;64036;48.266;14.192;2023-08-20T12:34:03;6.70;;;4.30;;
75456;SDS011;64036;48.266;14.192;2023-08-20T12:36:29;6.70;;;4.60;;
75456;SDS011;64036;48.266;14.192;2023-08-20T12:38:55;6.00;;;4.50;;
75456;SDS011;64036;48.266;14.192;2023-08-20T12:41:21;5.80;;;4.50;;
75456;SDS011;64036;48.266;14.192;2023-08-20T12:43:47;6.10;;;4.10;;
75456;SDS011;64036;48.266;14.192;2023-08-20T12:46:13;6.00;;;4.50;;
75456;SDS011;64036;48.266;14.192;2023-08-20T12:48:39;7.10;;;4.50;;
75456;SDS011;64036;48.266;14.192;2023-08-20T12:51:05;6.40;;;4.30;;
75456;SDS011;64036;48.266;14.192;2023-08-20T12:53:31;6.30;;;4.20;;
75456;SDS011;64036;48.266;14.192;2023-08-20T12:55:57;8.40;;;4.10;;
75456;SDS011;64036;48.266;14.192;2023-08-20T12:58:23;6.20;;;4.30;;
75456;SDS011;64036;48.266;14.192;2023-08-20T13:00:50;5.50;;;4.10;;
75456;SDS011;64036;48.266;14.192;2023-08-20T13:03:17;7.70;;;4.00;;
75456;SDS011;64036;48.266;14.192;2023-08-20T13:05:44;6.90;;;4.10;;
75456;SDS011;64036;48.266;14.192;2023-08-20T13:08:10;5.40;;;3.90;;
75456;SDS011;64036;48.266;14.192;2023-08-20T13:10:41;5.40;;;4.20;;
75456;SDS011;64036;48.266;14.192;2023-08-20T13:13:10;7.30;;;4.40;;
75456;SDS011;64036;48.266;14.192;2023-08-20T13:15:36;5.50;;;3.80;;
75456;SDS011;64036;48.266;14.192;2023-08-20T13:18:03;5.00;;;3.90;;
75456;SDS011;64036;48.266;14.192;2023-08-20T13:20:29;5.20;;;4.20;;
75456;SDS011;64036;48.266;14.192;2023-08-20T13:22:55;6.30;;;3.90;;
75456;SDS011;64036;48.266;14.192;2023-08-20T13:25:21;5.10;;;3.70;;
75456;SDS011;64036;48.266;14.192;2023-08-20T13:27:47;6.00;;;3.80;;
75456;SDS011;64036;48.266;14.192;2023-08-20T13:30:12;4.90;;;3.60;;
75456;SDS011;64036;48.266;14.192;2023-08-20T13:32:38;5.30;;;3.30;;
75456;SDS011;64036;48.266;14.192;2023-08-20T13:35:04;5.50;;;3.80;;
75456;SDS011;64036;48.266;14.192;2023-08-20T13:37:31;5.30;;;3.50;;
75456;SDS011;64036;48.266;14.192;2023-08-20T13:39:58;4.80;;;3.50;;
75456;SDS011;64036;48.266;14.192;2023-08-20T13:42:24;4.90;;;3.70;;
75456;SDS011;64036;48.266;14.192;2023-08-20T13:44:50;5.20;;;3.60;;
75456;SDS011;64036;48.266;14.192;2023-08-20T13:47:16;5.00;;;3.20;;
75456;SDS011;64036;48.266;14.192;2023-08-20T13:49:41;5.60;;;3.20;;
75456;SDS011;64036;48.266;14.192;2023-08-20T13:52:07;5.00;;;3.40;;
75456;SDS011;64036;48.266;14.192;2023-08-20T13:54:35;4.90;;;3.60;;
75456;SDS011;64036;48.266;14.192;2023-08-20T13:57:01;5.30;;;3.80;;
75456;SDS011;64036;48.266;14.192;2023-08-20T13:59:29;5.30;;;4.00;;
75456;SDS011;64036;48.266;14.192;2023-08-20T14:01:56;4.70;;;3.50;;
75456;SDS011;64036;48.266;14.192;2023-08-20T14:04:21;5.90;;;3.90;;
75456;SDS011;64036;48.266;14.192;2023-08-20T14:06:47;5.80;;;3.70;;
75456;SDS011;64036;48.266;14.192;2023-08-20T14:09:13;5.70;;;3.60;;
75456;SDS011;64036;48.266;14.192;2023-08-20T14:11:39;5.40;;;3.80;;
75456;SDS011;64036;48.266;14.192;2023-08-20T14:14:05;5.70;;;4.00;;
75456;SDS011;64036;48.266;14.192;2023-08-20T14:16:31;6.10;;;3.40;;
75456;SDS011;64036;48.266;14.192;2023-08-20T14:18:56;4.90;;;3.50;;
75456;SDS011;64036;48.266;14.192;2023-08-20T14:21:22;5.10;;;3.30;;
75456;SDS011;64036;48.266;14.192;2023-08-20T14:23:48;5.10;;;3.20;;
75456;SDS011;64036;48.266;14.192;2023-08-20T14:26:13;6.60;;;3.50;;
75456;SDS011;64036;48.266;14.192;2023-08-20T14:28:39;5.90;;;3.40;;
75456;SDS011;64036;48.266;14.192;2023-08-20T14:31:04;6.00;;;3.70;;
75456;SDS011;64036;48.266;14.192;2023-08-20T14:33:33;5.70;;;3.80;;
75456;SDS011;64036;48.266;14.192;2023-08-20T14:35:59;6.10;;;3.40;;
75456;SDS011;64036;48.266;14.192;2023-08-20T14:38:25;6.00;;;3.80;;
75456;SDS011;64036;48.266;14.192;2023-08-20T14:40:51;4.40;;;3.10;;
75456;SDS011;64036;48.266;14.192;2023-08-20T14:43:17;5.20;;;3.50;;
75456;SDS011;64036;48.266;14.192;2023-08-20T14:45:42;5.50;;;3.60;;
75456;SDS011;64036;48.266;14.192;2023-08-20T14:48:08;6.00;;;3.60;;
75456;SDS011;64036;48.266;14.192;2023-08-20T14:50:34;6.70;;;3.60;;
75456;SDS011;64036;48.266;14.192;2023-08-20T14:53:00;5.30;;;3.50;;
75456;SDS011;64036;48.266;14.192;2023-08-20T14:55:26;6.00;;;3.40;;
75456;SDS011;64036;48.266;14.192;2023-08-20T14:57:51;5.50;;;3.20;;
75456;SDS011;64036;48.266;14.192;2023-08-20T15:00:17;6.00;;;3.50;;